Time;durP1;ratioP1;P1;durP2;ratioP2;P2;SDS_P1;SDS_P2;PMS_P1;PMS_P2;Temp;Humidity;BMP_temperature;BMP_pressure;BME280_temperature;BME280_humidity;BME280_pressure;Samples;Min_cycle;Max_cycle;Signal;HPM_P1;HPM_P2
2022/03/15 00:01:21;;;;;;;18.20;8.67;;;;;;;-1.07;100.00;60698.78;5092658;28;20462;-78
2022/03/15 00:03:50;;;;;;;13.93;7.50;;;;;;;-0.06;100.00;60807.69;5103837;28;20995;-80
2022/03/15 00:06:21;;;;;;;19.97;8.47;;;;;;;-0.17;100.00;60796.03;5114591;28;20449;-80
2022/03/15 00:08:56;;;;;;;19.57;8.63;;;;;;;-0.18;100.00;60791.94;5114446;28;20484;-78
2022/03/15 00:11:25;;;;;;;15.13;8.20;;;;;;;-0.90;100.00;60716.75;5084130;28;20853;-80
2022/03/15 00:13:57;;;;;;;19.13;8.83;;;;;;;-0.83;100.00;60723.13;5073658;28;20434;-80
2022/03/15 00:16:25;;;;;;;18.03;9.40;;;;;;;-0.36;100.00;60773.41;5073975;28;20456;-78
2022/03/15 00:18:53;;;;;;;17.50;8.80;;;;;;;-0.28;100.00;60779.38;5073260;28;20485;-80
2022/03/15 00:21:25;;;;;;;16.77;8.07;;;;;;;-0.97;100.00;60704.38;5094018;28;20446;-79
2022/03/15 00:24:00;;;;;;;17.50;8.23;;;;;;;-0.61;100.00;60746.41;5094073;28;20442;-78
2022/03/15 00:26:32;;;;;;;24.33;8.87;;;;;;;-0.36;100.00;60772.88;5094000;28;20943;-78
2022/03/15 00:29:05;;;;;;;46.97;17.93;;;;;;;-1.06;100.00;60694.84;5093508;28;20920;-80
2022/03/15 00:31:32;;;;;;;63.70;23.60;;;;;;;-0.79;100.00;60732.88;5094027;28;20434;-80
2022/03/15 00:42:23;;;;;;;33.67;12.37;;;;;;;-1.18;100.00;60689.63;5092695;28;21001;-80
2022/03/15 00:45:04;;;;;;;20.83;9.03;;;;;;;-1.36;100.00;60668.09;5093376;28;20479;-81
2022/03/15 00:47:37;;;;;;;15.00;8.03;;;;;;;-0.40;100.00;60768.66;5093208;28;20481;-79
2022/03/15 00:50:14;;;;;;;14.43;7.30;;;;;;;-0.99;100.00;60701.72;5093540;28;20445;-81
2022/03/15 00:52:56;;;;;;;14.30;7.13;;;;;;;-0.69;100.00;60738.47;5085472;28;20441;-80
2022/03/15 00:55:29;;;;;;;13.70;6.87;;;;;;;-1.09;100.00;60691.66;5102600;28;20437;-77
2022/03/15 00:58:09;;;;;;;16.33;6.90;;;;;;;-1.35;100.00;60668.63;5093363;28;20462;-80
2022/03/15 01:03:21;;;;;;;12.60;6.87;;;;;;;-1.26;100.00;60673.69;5095010;28;20481;-77
2022/03/15 01:05:52;;;;;;;12.93;6.73;;;;;;;-0.93;100.00;60708.06;5115891;28;20454;-79
2022/03/15 01:08:20;;;;;;;12.33;6.60;;;;;;;-1.29;100.00;60675.50;5092435;28;20473;-79
2022/03/15 01:10:49;;;;;;;14.30;7.27;;;;;;;-0.96;100.00;60710.41;5092331;28;20898;-79
2022/03/15 01:13:19;;;;;;;20.47;7.27;;;;;;;-1.95;100.00;60605.72;5092876;28;20434;-81
2022/03/15 01:15:59;;;;;;;16.47;7.40;;;;;;;-1.93;100.00;60607.81;5092807;28;20425;-77
2022/03/15 01:18:29;;;;;;;13.70;7.33;;;;;;;-1.21;100.00;60678.97;5092832;28;20453;-78
2022/03/15 01:20:57;;;;;;;14.63;7.40;;;;;;;-1.48;100.00;60652.91;5074851;28;20437;-81
2022/03/15 01:23:24;;;;;;;18.20;8.33;;;;;;;-1.08;100.00;60692.19;5093101;28;20448;-78
2022/03/15 01:26:02;;;;;;;22.10;8.67;;;;;;;-1.04;100.00;60698.91;5092971;28;20450;-78
2022/03/15 01:28:32;;;;;;;17.57;8.80;;;;;;;-1.14;100.00;60693.88;5092861;28;20580;-78
2022/03/15 01:31:03;;;;;;;14.87;7.70;;;;;;;-1.24;100.00;60675.78;5074243;28;20485;-79
2022/03/15 01:33:32;;;;;;;49.17;17.70;;;;;;;-1.33;100.00;60673.78;5092662;28;21023;-79
2022/03/15 01:36:02;;;;;;;482.40;145.13;;;;;;;-1.53;100.00;60650.13;5092491;28;20441;-79
2022/03/15 01:38:29;;;;;;;447.23;141.83;;;;;;;-2.15;100.00;60587.06;5091880;28;20445;-78
2022/03/15 01:41:05;;;;;;;301.90;106.60;;;;;;;-1.60;100.00;60645.19;5092470;28;20503;-78
2022/03/15 01:43:41;;;;;;;207.23;74.20;;;;;;;-1.76;100.00;60626.31;5092105;28;20944;-79
2022/03/15 01:46:12;;;;;;;177.47;56.87;;;;;;;-1.38;100.00;60662.94;5092523;28;20429;-80
2022/03/15 01:48:41;;;;;;;40.43;15.63;;;;;;;-1.45;100.00;60661.06;5092453;28;20496;-78
2022/03/15 01:51:09;;;;;;;33.33;14.07;;;;;;;-1.29;100.00;60674.97;5091933;28;20803;-77
2022/03/15 01:53:40;;;;;;;33.20;14.33;;;;;;;-1.68;100.00;60631.22;5092510;28;20441;-77
2022/03/15 01:56:08;;;;;;;21.50;9.80;;;;;;;-1.80;100.00;60621.56;5091500;28;20446;-76
2022/03/15 01:58:40;;;;;;;27.17;10.13;;;;;;;-1.18;100.00;60686.59;5092347;28;20478;-79
2022/03/15 02:01:07;;;;;;;20.33;8.13;;;;;;;-1.25;100.00;60677.25;5091497;28;20903;-78
2022/03/15 02:03:35;;;;;;;16.33;8.13;;;;;;;-1.80;100.00;60627.09;5091975;28;20457;-76
2022/03/15 02:06:05;;;;;;;25.87;10.53;;;;;;;-2.36;100.00;60562.38;5091555;28;20972;-76
2022/03/15 02:08:36;;;;;;;15.93;8.60;;;;;;;-1.89;100.00;60609.56;5091741;28;20481;-77
2022/03/15 02:11:03;;;;;;;21.20;7.97;;;;;;;-1.43;100.00;60660.69;5092056;28;20444;-78
2022/03/15 02:13:32;;;;;;;25.07;9.23;;;;;;;-1.85;100.00;60613.78;5091875;28;20830;-78
2022/03/15 02:16:10;;;;;;;26.27;9.60;;;;;;;-1.40;100.00;60661.38;5073518;28;21041;-78
2022/03/15 02:18:38;;;;;;;20.37;9.57;;;;;;;-1.50;100.00;60650.78;5091571;28;20440;-78
2022/03/15 02:21:13;;;;;;;20.13;10.23;;;;;;;-2.24;100.00;60575.03;5093199;28;20450;-82
2022/03/15 02:26:24;;;;;;;38.80;13.43;;;;;;;-1.65;100.00;60639.94;5094817;28;20534;-77
2022/03/15 02:28:53;;;;;;;25.87;11.63;;;;;;;-1.61;100.00;60643.63;5096920;28;20570;-77
2022/03/15 02:31:27;;;;;;;27.43;12.47;;;;;;;-2.11;100.00;60588.78;5096232;28;20440;-77
2022/03/15 02:33:56;;;;;;;23.63;11.37;;;;;;;-3.39;100.00;60454.13;5096689;28;20461;-78
2022/03/15 02:36:28;;;;;;;30.70;12.43;;;;;;;-2.05;100.00;60595.13;5098091;28;20449;-78
2022/03/15 02:38:56;;;;;;;23.80;11.10;;;;;;;-2.29;100.00;60570.28;5106597;28;20494;-78
2022/03/15 02:41:25;;;;;;;24.33;10.87;;;;;;;-2.59;100.00;60539.13;5111232;28;20479;-77
2022/03/15 02:43:56;;;;;;;23.73;10.67;;;;;;;-2.55;100.00;60542.31;5108109;28;20446;-77
2022/03/15 02:46:30;;;;;;;21.70;10.00;;;;;;;-3.61;100.00;60426.44;5096464;28;20505;-79
2022/03/15 02:48:57;;;;;;;23.80;10.43;;;;;;;-2.78;100.00;60519.06;5109507;28;20477;-78
2022/03/15 02:51:31;;;;;;;21.40;10.50;;;;;;;-3.47;100.00;60441.22;5109324;28;20441;-78
2022/03/15 02:54:01;;;;;;;23.07;9.47;;;;;;;-2.75;100.00;60519.19;5097930;28;20200;-80
2022/03/15 02:59:17;;;;;;;24.90;10.80;;;;;;;-2.54;100.00;60538.38;5095229;28;20444;-80
2022/03/15 03:01:46;;;;;;;24.30;11.17;;;;;;;-2.82;100.00;60514.84;5077746;28;20481;-80
2022/03/15 03:04:22;;;;;;;18.40;8.70;;;;;;;-2.00;100.00;60605.41;5077296;28;20445;-81
2022/03/15 03:07:01;;;;;;;25.90;11.43;;;;;;;-2.21;100.00;60583.22;5095330;28;20469;-82
2022/03/15 03:17:49;;;;;;;25.17;9.30;;;;;;;-1.99;100.00;60602.00;5094167;28;20473;-78
2022/03/15 03:23:03;;;;;;;23.80;10.30;;;;;;;-2.27;100.00;60571.88;5094818;28;20442;-80
2022/03/15 03:28:17;;;;;;;26.57;12.50;;;;;;;-2.04;100.00;60591.19;5093999;28;20629;-79
2022/03/15 03:30:47;;;;;;;25.93;12.70;;;;;;;-2.35;100.00;60563.94;5094475;28;20450;-80
2022/03/15 03:33:16;;;;;;;25.90;13.57;;;;;;;-2.16;100.00;60588.50;5093945;28;20470;-82
2022/03/15 03:35:44;;;;;;;32.33;13.23;;;;;;;-2.29;100.00;60570.28;5095018;28;20461;-80
2022/03/15 03:38:14;;;;;;;32.30;14.57;;;;;;;-1.99;100.00;60599.00;5094522;28;20450;-79
2022/03/15 03:40:41;;;;;;;30.57;14.23;;;;;;;-2.01;100.00;60599.88;5094907;28;20437;-82
2022/03/15 03:43:15;;;;;;;32.10;13.47;;;;;;;-2.08;100.00;60581.97;5094586;28;20884;-80
2022/03/15 03:45:44;;;;;;;27.00;13.90;;;;;;;-2.30;100.00;60563.72;5095017;28;20461;-81
2022/03/15 03:48:16;;;;;;;40.83;14.03;;;;;;;-2.40;100.00;60553.16;5094984;28;20520;-80
2022/03/15 03:50:43;;;;;;;37.13;16.80;;;;;;;-2.26;100.00;60573.47;5094581;28;20517;-79
2022/03/15 03:53:16;;;;;;;44.77;18.43;;;;;;;-2.36;100.00;60562.38;5094633;28;20470;-81
2022/03/15 03:55:43;;;;;;;48.73;22.03;;;;;;;-2.31;100.00;60562.66;5094724;28;20526;-82
2022/03/15 03:58:16;;;;;;;45.40;21.60;;;;;;;-3.81;100.00;60415.31;5094320;28;20515;-78
2022/03/15 04:00:50;;;;;;;53.47;24.47;;;;;;;-2.49;100.00;60543.66;5094424;28;20480;-80
2022/03/15 04:03:19;;;;;;;51.03;23.07;;;;;;;-2.54;100.00;60538.38;5075554;28;20995;-81
2022/03/15 04:05:47;;;;;;;47.23;22.60;;;;;;;-2.42;100.00;60556.03;5094291;28;20453;-80
2022/03/15 04:08:47;;;;;;;57.87;22.90;;;;;;;-2.78;100.00;60516.03;5094582;28;20527;-79
2022/03/15 04:11:22;;;;;;;50.60;21.83;;;;;;;-2.96;100.00;60497.03;5093537;28;20450;-80
2022/03/15 04:13:53;;;;;;;47.83;22.40;;;;;;;-3.48;100.00;60437.69;5086798;28;20445;-78
2022/03/15 04:16:31;;;;;;;48.57;22.90;;;;;;;-3.61;100.00;60431.44;5092810;28;20493;-80
2022/03/15 04:19:00;;;;;;;53.23;24.00;;;;;;;-3.18;100.00;60468.81;5093634;28;20847;-77
2022/03/15 04:21:27;;;;;;;48.13;22.37;;;;;;;-3.43;100.00;60447.94;5096124;28;20448;-77
2022/03/15 04:23:58;;;;;;;49.45;22.88;;;;;;;-3.28;100.00;60465.72;5096221;28;20449;-76
2022/03/15 04:26:27;;;;;;;65.70;23.83;;;;;;;-2.85;100.00;60511.13;5093894;28;20203;-77
2022/03/15 04:28:55;;;;;;;54.50;23.80;;;;;;;-3.46;100.00;60437.81;5094137;28;20492;-78
2022/03/15 04:31:25;;;;;;;55.27;22.57;;;;;;;-2.74;100.00;60523.28;5096096;28;20517;-79
2022/03/15 04:34:10;;;;;;;52.90;22.43;;;;;;;-2.74;100.00;60523.28;5101591;28;20430;-80
2022/03/15 04:36:43;;;;;;;52.77;24.33;;;;;;;-3.15;100.00;60474.47;5094767;28;20449;-78
2022/03/15 04:39:29;;;;;;;67.77;25.30;;;;;;;-2.83;100.00;60513.78;5093525;28;20438;-80
2022/03/15 04:41:59;;;;;;;59.50;24.30;;;;;;;-2.96;100.00;60495.06;5094327;28;20438;-80
2022/03/15 04:44:28;;;;;;;60.97;24.87;;;;;;;-3.06;100.00;60489.50;5093158;28;20453;-78
2022/03/15 04:46:59;;;;;;;55.77;26.97;;;;;;;-3.38;100.00;60455.72;5093952;28;20438;-79
2022/03/15 04:49:27;;;;;;;58.10;25.57;;;;;;;-2.70;100.00;60522.53;5093129;28;20494;-78
2022/03/15 04:52:02;;;;;;;58.07;26.23;;;;;;;-3.17;100.00;60482.84;5093407;28;20941;-79
2022/03/15 04:54:32;;;;;;;58.93;25.60;;;;;;;-2.61;100.00;60532.03;5093172;28;20441;-79
2022/03/15 04:56:59;;;;;;;55.00;25.17;;;;;;;-2.53;100.00;60544.94;5093938;28;20932;-77
2022/03/15 04:59:48;;;;;;;62.17;28.53;;;;;;;-2.36;100.00;60562.38;5094463;28;21014;-78
2022/03/15 05:02:15;;;;;;;62.60;30.30;;;;;;;-2.40;100.00;60553.69;5093844;28;20438;-80
2022/03/15 05:04:46;;;;;;;78.90;31.03;;;;;;;-2.52;100.00;60545.47;5094240;28;20434;-80
2022/03/15 05:07:17;;;;;;;61.43;28.23;;;;;;;-2.83;100.00;60513.78;5093453;28;20972;-78
2022/03/15 05:12:44;;;;;;;74.73;24.70;;;;;;;-2.31;100.00;60567.66;5061221;28;20460;-78
2022/03/15 05:15:11;;;;;;;47.90;23.20;;;;;;;-2.25;100.00;60569.00;5093150;28;20447;-78
2022/03/15 05:17:41;;;;;;;75.40;33.23;;;;;;;-2.00;100.00;60600.94;5093928;28;20450;-79
2022/03/15 05:22:55;;;;;;;59.50;28.23;;;;;;;-1.86;100.00;60620.22;5091702;28;20445;-79
2022/03/15 05:25:25;;;;;;;61.33;28.50;;;;;;;-1.57;100.00;60645.34;5093190;28;20464;-78
2022/03/15 05:28:28;;;;;;;52.67;24.87;;;;;;;-1.18;100.00;60682.13;5093297;28;20445;-82
2022/03/15 05:30:58;;;;;;;52.20;23.67;;;;;;;-0.94;100.00;60712.53;5091367;28;20449;-80
2022/03/15 05:33:28;;;;;;;61.27;24.93;;;;;;;-1.60;100.00;60642.16;5092629;28;20797;-79
2022/03/15 05:36:00;;;;;;;54.70;25.57;;;;;;;-0.52;100.00;60755.94;5092575;28;20450;-79
2022/03/15 05:38:27;;;;;;;54.20;25.27;;;;;;;-0.13;100.00;60797.25;5092418;28;20430;-79
2022/03/15 05:41:13;;;;;;;67.90;28.37;;;;;;;0.12;100.00;60818.72;5092123;28;20438;-78
2022/03/15 05:43:41;;;;;;;60.57;25.23;;;;;;;-0.38;100.00;60768.78;5091413;28;20588;-79
2022/03/15 05:46:10;;;;;;;53.37;24.73;;;;;;;-0.12;100.00;60800.81;5092187;28;20430;-79
2022/03/15 05:48:36;;;;;;;70.37;26.03;;;;;;;0.06;100.00;60811.84;5092400;28;20533;-79
2022/03/15 05:51:08;;;;;;;53.30;25.80;;;;;;;0.57;100.00;60873.91;5092209;28;20521;-79
2022/03/15 05:53:51;;;;;;;58.10;26.73;;;;;;;0.74;100.00;60889.44;5091095;28;20536;-80
2022/03/15 05:56:30;;;;;;;70.47;32.07;;;;;;;0.38;100.00;60845.75;5092156;28;20429;-79
2022/03/15 06:04:25;;;;;;;65.50;27.93;;;;;;;0.77;100.00;60892.09;5091266;28;20445;-79
2022/03/15 06:06:56;;;;;;;66.10;29.50;;;;;;;0.79;100.00;60894.22;5091832;28;20442;-81
2022/03/15 06:09:24;;;;;;;69.40;29.53;;;;;;;1.14;100.00;60931.34;5091619;28;20477;-77
2022/03/15 06:11:54;;;;;;;62.03;29.23;;;;;;;1.01;100.00;60919.53;5092044;28;20442;-79
2022/03/15 06:14:21;;;;;;;59.83;28.70;;;;;;;0.60;100.00;60869.59;5092380;28;20476;-79
2022/03/15 06:16:50;;;;;;;67.60;29.17;;;;;;;0.79;100.00;60894.75;5091812;28;20453;-79
2022/03/15 06:19:21;;;;;;;62.83;28.17;;;;;;;1.56;100.00;60975.38;5091230;28;21023;-77
2022/03/15 06:21:49;;;;;;;63.20;29.37;;;;;;;1.58;100.00;60974.97;5092168;28;20453;-79
2022/03/15 06:24:17;;;;;;;69.23;31.13;;;;;;;1.86;100.00;61004.69;5091868;28;20441;-79
2022/03/15 06:26:46;;;;;;;74.60;33.40;;;;;;;1.84;100.00;61005.09;5073768;28;20484;-80
2022/03/15 06:29:30;;;;;;;72.90;33.50;;;;;;;2.30;100.00;61051.41;5091921;28;20997;-79
2022/03/15 06:31:59;;;;;;;77.50;36.60;;;;;;;2.30;100.00;61053.94;5092400;28;20445;-78
2022/03/15 06:34:27;;;;;;;86.87;40.27;;;;;;;2.71;100.00;61091.38;5073435;28;20527;-78
2022/03/15 06:36:59;;;;;;;88.20;42.00;;;;;;;2.46;100.00;61068.41;5091975;28;20445;-79
2022/03/15 06:39:28;;;;;;;83.90;37.93;;;;;;;3.17;100.00;61142.78;5092032;28;20449;-78
2022/03/15 06:41:56;;;;;;;81.83;37.30;;;;;;;3.04;100.00;61136.53;5092636;28;20449;-80
2022/03/15 06:44:30;;;;;;;76.70;37.53;;;;;;;2.92;100.00;61121.78;5092159;28;20453;-80
2022/03/15 06:47:00;;;;;;;71.87;36.13;;;;;;;3.50;100.00;61180.41;5092177;28;20441;-79
2022/03/15 06:49:28;;;;;;;71.77;35.37;;;;;;;3.97;100.00;61224.81;5091733;28;20493;-80
2022/03/15 06:51:57;;;;;;;65.53;35.57;;;;;;;4.22;100.00;61256.47;5091634;28;20442;-80
2022/03/15 06:54:26;;;;;;;65.37;32.93;;;;;;;4.39;100.00;61272.03;5073396;28;20445;-80
2022/03/15 06:56:56;;;;;;;77.30;37.23;;;;;;;4.35;100.00;61267.25;5092200;28;20446;-80
2022/03/15 06:59:24;;;;;;;67.40;34.40;;;;;;;4.47;100.00;61280.03;5091282;28;20544;-80
2022/03/15 07:01:56;;;;;;;62.97;32.47;;;;;;;4.57;100.00;61288.16;5091696;28;20513;-79
2022/03/15 07:04:22;;;;;;;69.03;33.10;;;;;;;4.57;100.00;61293.72;5091094;28;20493;-80
2022/03/15 07:06:49;;;;;;;68.50;32.70;;;;;;;4.48;100.00;61279.09;5091450;28;20450;-80
2022/03/15 07:09:18;;;;;;;70.53;34.73;;;;;;;4.62;100.00;61299.03;5095859;28;20430;-78
2022/03/15 07:11:47;;;;;;;79.57;35.20;;;;;;;4.04;100.00;61232.81;5077100;28;20440;-83
2022/03/15 07:14:15;;;;;;;71.17;34.57;;;;;;;4.38;100.00;61272.97;5095381;28;20874;-78
2022/03/15 07:16:43;;;;;;;71.20;33.97;;;;;;;4.25;100.00;61252.63;5094708;28;20901;-81
2022/03/15 07:19:28;;;;;;;66.13;33.17;;;;;;;4.99;100.00;61335.41;5094815;28;20481;-81
2022/03/15 07:21:58;;;;;;;66.93;33.20;;;;;;;5.24;100.00;61359.50;5095620;28;20951;-79
2022/03/15 07:24:25;;;;;;;74.17;34.13;;;;;;;4.95;100.00;61326.59;5096020;28;20437;-80
2022/03/15 07:26:52;;;;;;;84.73;34.33;;;;;;;5.21;100.00;61356.31;5116535;28;20446;-80
2022/03/15 07:29:20;;;;;;;66.50;32.93;;;;;;;5.00;100.00;61338.97;5094995;28;20461;-78
2022/03/15 07:31:47;;;;;;;91.10;34.83;;;;;;;5.59;100.00;61394.28;5094930;28;20442;-79
2022/03/15 07:34:16;;;;;;;69.57;31.63;;;;;;;6.08;100.00;61448.00;5094981;28;20456;-81
2022/03/15 07:36:46;;;;;;;73.47;31.90;;;;;;;6.07;100.00;61447.44;5077164;28;20450;-79
2022/03/15 07:39:14;;;;;;;78.60;32.33;;;;;;;6.41;100.00;61483.16;5094296;28;20441;-78
2022/03/15 07:41:43;;;;;;;72.87;32.23;;;;;;;6.37;100.00;61484.50;5094490;28;20533;-79
2022/03/15 07:44:12;;;;;;;73.57;31.27;;;;;;;6.40;100.00;61487.16;5094445;28;20437;-78
2022/03/15 07:46:53;;;;;;;69.50;33.03;;;;;;;7.14;100.00;61563.59;5094561;28;20461;-78
2022/03/15 07:49:22;;;;;;;71.83;33.87;;;;;;;6.94;100.00;61544.78;5094331;28;20940;-79
2022/03/15 07:51:52;;;;;;;66.00;32.10;;;;;;;7.60;100.00;61610.19;5095034;28;20907;-79
2022/03/15 07:54:19;;;;;;;68.83;33.07;;;;;;;7.79;100.00;61637.03;5094467;28;20987;-79
2022/03/15 07:56:56;;;;;;;78.87;33.50;;;;;;;7.79;100.00;61631.94;5094334;28;20450;-80
2022/03/15 07:59:24;;;;;;;72.03;35.43;;;;;;;8.59;100.00;61724.53;5093938;28;20515;-79
2022/03/15 08:01:53;;;;;;;69.53;33.40;;;;;;;7.89;100.00;61645.16;5076073;28;20442;-79
2022/03/15 08:04:19;;;;;;;62.47;32.03;;;;;;;8.39;100.00;61698.63;5093884;28;20469;-79
2022/03/15 08:06:53;;;;;;;78.57;34.83;;;;;;;7.35;100.00;61583.47;5075976;28;20453;-77
2022/03/15 08:09:20;;;;;;;60.53;32.87;;;;;;;8.13;98.89;61670.81;5093892;28;20442;-82
2022/03/15 08:11:47;;;;;;;66.87;34.10;;;;;;;8.14;97.75;61669.34;5082948;28;20442;-80
2022/03/15 08:14:15;;;;;;;69.90;33.47;;;;;;;8.52;98.44;61707.97;5080322;28;20435;-78
2022/03/15 08:16:43;;;;;;;67.60;33.03;;;;;;;8.00;99.79;61656.91;5075971;28;20442;-79
2022/03/15 08:19:11;;;;;;;71.63;32.00;;;;;;;8.07;98.74;61659.31;5077341;28;20767;-80
2022/03/15 08:21:38;;;;;;;67.43;34.67;;;;;;;8.65;100.00;61725.88;5093973;28;20453;-80
2022/03/15 08:24:10;;;;;;;77.27;39.20;;;;;;;8.18;99.39;61673.59;5094070;28;20835;-79
2022/03/15 08:26:38;;;;;;;72.80;32.47;;;;;;;7.98;99.97;61649.69;5094544;28;20434;-82
2022/03/15 08:29:06;;;;;;;82.60;32.07;;;;;;;8.25;100.00;61678.59;5075620;28;20873;-80
2022/03/15 08:31:37;;;;;;;58.03;29.70;;;;;;;8.58;99.18;61718.38;5092878;28;20489;-81
2022/03/15 08:34:04;;;;;;;53.80;29.63;;;;;;;9.05;92.49;61764.09;5075366;28;20446;-80
2022/03/15 08:36:34;;;;;;;65.87;31.23;;;;;;;8.77;89.20;61739.25;5076985;28;20465;-80
2022/03/15 08:39:03;;;;;;;71.33;31.20;;;;;;;8.40;95.05;61695.13;5099225;28;20442;-78
2022/03/15 08:41:40;;;;;;;70.20;32.17;;;;;;;8.73;97.91;61732.44;5098645;28;20426;-79
2022/03/15 08:44:08;;;;;;;61.83;27.67;;;;;;;9.10;89.87;61772.00;5098677;28;20434;-78
2022/03/15 08:46:36;;;;;;;61.67;27.67;;;;;;;8.64;88.99;61724.78;5093266;28;20506;-79
2022/03/15 08:49:06;;;;;;;49.67;25.10;;;;;;;8.85;86.50;61745.25;5075832;28;20499;-79
2022/03/15 08:51:33;;;;;;;55.60;25.20;;;;;;;8.92;86.98;61747.66;5094509;28;20520;-78
2022/03/15 08:54:00;;;;;;;58.10;25.97;;;;;;;9.07;85.17;61766.25;5076631;28;21032;-79
2022/03/15 08:56:28;;;;;;;55.23;24.03;;;;;;;9.32;81.67;61790.44;5093956;28;20449;-79
2022/03/15 08:58:56;;;;;;;53.10;22.97;;;;;;;9.08;79.90;61767.31;5093738;28;20442;-80
2022/03/15 09:01:26;;;;;;;52.57;22.70;;;;;;;9.83;79.22;61846.50;5092934;28;20850;-80
2022/03/15 09:03:55;;;;;;;43.30;22.07;;;;;;;10.31;75.79;61907.53;5092725;28;20461;-78
2022/03/15 09:06:23;;;;;;;46.53;22.83;;;;;;;9.79;74.74;61847.28;5093085;28;20515;-79
2022/03/15 09:08:53;;;;;;;45.07;21.53;;;;;;;10.35;73.25;61904.72;5093186;28;20453;-80
2022/03/15 09:11:24;;;;;;;34.43;19.87;;;;;;;10.54;70.36;61925.09;5093261;28;20538;-80
2022/03/15 09:13:52;;;;;;;47.60;22.00;;;;;;;10.80;71.02;61955.50;5093030;28;20499;-80
2022/03/15 09:16:39;;;;;;;44.87;23.67;;;;;;;11.44;69.51;62017.91;5092978;28;20444;-79
2022/03/15 09:19:06;;;;;;;54.37;23.23;;;;;;;11.15;65.73;61997.03;5092228;28;20342;-80
2022/03/15 09:21:39;;;;;;;45.70;23.30;;;;;;;10.61;63.19;61924.94;5112219;28;20205;-79
2022/03/15 09:24:07;;;;;;;46.97;21.17;;;;;;;11.79;61.00;62058.53;5113007;28;20194;-79
2022/03/15 09:26:36;;;;;;;43.73;22.33;;;;;;;11.94;59.44;62071.53;5113113;28;20264;-79
2022/03/15 09:29:10;;;;;;;49.10;22.50;;;;;;;11.97;57.20;62074.78;5117276;28;20241;-78
2022/03/15 09:34:36;;;;;;;57.17;23.47;;;;;;;12.32;58.26;62117.44;5112386;28;20592;-80
2022/03/15 09:37:05;;;;;;;47.80;23.90;;;;;;;12.28;56.33;62108.03;5113052;28;20260;-79
2022/03/15 09:39:36;;;;;;;41.90;22.80;;;;;;;12.77;55.37;62164.66;5113644;28;20203;-79
2022/03/15 09:42:07;;;;;;;39.40;23.03;;;;;;;13.31;53.19;62217.53;5112588;28;20195;-80
2022/03/15 09:47:25;;;;;;;43.73;23.43;;;;;;;13.06;51.62;62193.78;5115451;28;20238;-79
2022/03/15 09:49:57;;;;;;;43.27;22.37;;;;;;;12.41;52.16;62127.09;5114478;28;20199;-80
2022/03/15 09:52:29;;;;;;;42.00;23.10;;;;;;;12.04;54.29;62089.94;5112479;28;20191;-78
2022/03/15 09:54:57;;;;;;;43.10;22.40;;;;;;;13.00;54.23;62189.34;5112459;28;20657;-78
2022/03/15 09:57:26;;;;;;;34.70;21.63;;;;;;;13.58;53.83;62249.13;5112760;28;20274;-78
2022/03/15 09:59:58;;;;;;;47.03;20.67;;;;;;;13.60;51.41;62255.84;5112293;28;20229;-78
2022/03/15 10:02:28;;;;;;;45.33;21.27;;;;;;;12.97;51.30;62178.47;5094149;28;20199;-79
2022/03/15 10:04:56;;;;;;;39.43;20.03;;;;;;;13.54;52.31;62247.38;5112903;28;20207;-79
2022/03/15 10:07:23;;;;;;;39.77;20.77;;;;;;;13.93;49.16;62286.72;5112701;28;20210;-78
2022/03/15 10:10:00;;;;;;;34.00;19.73;;;;;;;13.53;48.18;62241.19;5112231;28;20207;-78
2022/03/15 10:12:28;;;;;;;41.53;18.93;;;;;;;13.88;48.99;62281.34;5112258;28;20210;-78
2022/03/15 10:14:57;;;;;;;35.43;18.50;;;;;;;13.70;48.38;62259.47;5112128;28;20203;-77
2022/03/15 10:17:32;;;;;;;32.93;19.23;;;;;;;13.51;47.25;62241.59;5111818;28;20199;-78
2022/03/15 10:20:01;;;;;;;37.03;19.77;;;;;;;14.23;46.47;62321.00;5111976;28;20237;-78
2022/03/15 10:22:32;;;;;;;33.33;20.00;;;;;;;14.32;45.45;62330.69;5111959;28;20688;-79
2022/03/15 10:25:01;;;;;;;32.67;20.30;;;;;;;14.71;45.04;62372.09;5112340;28;20230;-79
2022/03/15 10:32:52;;;;;;;37.00;19.00;;;;;;;15.66;41.87;62469.22;5111333;28;20281;-81
2022/03/15 10:35:27;;;;;;;33.90;17.30;;;;;;;15.50;40.30;62454.56;5113908;28;20202;-78
2022/03/15 10:37:55;;;;;;;35.03;18.57;;;;;;;15.52;41.15;62459.28;5111727;28;20669;-78
2022/03/15 10:40:37;;;;;;;36.27;18.57;;;;;;;15.72;40.18;62477.69;5112346;28;20287;-78
2022/03/15 10:43:08;;;;;;;39.20;17.93;;;;;;;15.44;39.87;62450.66;5115378;28;20195;-80
2022/03/15 10:45:36;;;;;;;32.47;16.23;;;;;;;16.15;38.91;62526.03;5115844;28;20206;-78
2022/03/15 10:48:15;;;;;;;29.73;16.07;;;;;;;15.77;38.87;62481.06;5116165;28;20263;-79
2022/03/15 10:50:54;;;;;;;25.50;15.27;;;;;;;15.64;37.47;62469.63;5116019;28;20226;-77
2022/03/15 10:53:25;;;;;;;32.20;16.83;;;;;;;15.71;38.34;62479.75;5097482;28;20206;-77
2022/03/15 10:56:13;;;;;;;30.43;16.27;;;;;;;15.05;37.73;62408.69;5116001;28;20264;-77
2022/03/15 10:58:52;;;;;;;25.00;12.33;;;;;;;15.58;35.52;62463.16;5115802;28;20210;-78
2022/03/15 11:01:21;;;;;;;21.07;13.40;;;;;;;15.43;35.04;62449.59;5116805;28;20214;-78
2022/03/15 11:03:57;;;;;;;27.37;12.70;;;;;;;15.50;35.41;62457.13;5116125;28;20210;-77
2022/03/15 11:06:37;;;;;;;20.23;11.23;;;;;;;15.74;34.45;62482.97;5115243;28;20206;-76
2022/03/15 11:09:22;;;;;;;23.60;10.60;;;;;;;16.05;34.17;62511.22;5116027;28;20195;-79
2022/03/15 11:12:00;;;;;;;19.50;10.43;;;;;;;16.69;33.87;62573.94;5113510;28;20239;-78
2022/03/15 11:14:39;;;;;;;18.93;10.47;;;;;;;16.56;33.36;62565.09;5115402;28;20203;-78
2022/03/15 11:17:13;;;;;;;15.27;9.07;;;;;;;16.85;32.40;62596.34;5097538;28;20205;-78
2022/03/15 11:19:45;;;;;;;20.20;9.10;;;;;;;16.50;32.59;62561.22;5115537;28;20236;-79
2022/03/15 11:22:23;;;;;;;19.67;9.77;;;;;;;17.05;32.84;62617.34;5097262;28;20199;-79
2022/03/15 11:25:02;;;;;;;14.00;9.17;;;;;;;17.98;31.83;62722.28;5115825;28;20597;-79
2022/03/15 11:27:33;;;;;;;15.60;8.93;;;;;;;17.67;32.11;62689.94;5100186;28;20716;-77
2022/03/15 11:30:02;;;;;;;14.10;8.80;;;;;;;17.10;32.11;62628.44;5121769;28;20211;-77
2022/03/15 11:32:34;;;;;;;11.73;7.73;;;;;;;17.05;31.52;62615.31;5129625;28;20234;-78
2022/03/15 11:35:02;;;;;;;15.20;8.30;;;;;;;17.12;31.44;62630.06;5127429;28;20217;-79
2022/03/15 11:37:47;;;;;;;16.03;8.57;;;;;;;17.02;32.45;62616.72;5121289;28;20206;-80
2022/03/15 11:40:21;;;;;;;19.10;8.60;;;;;;;17.23;32.31;62641.91;5103597;28;20203;-78
2022/03/15 11:42:51;;;;;;;23.90;8.07;;;;;;;17.61;32.05;62688.59;5121429;28;20207;-77
2022/03/15 11:45:26;;;;;;;15.97;6.30;;;;;;;17.78;31.63;62698.13;5121433;28;20207;-78
2022/03/15 11:48:08;;;;;;;13.67;6.10;;;;;;;17.73;31.77;62691.25;5121691;28;20190;-78
2022/03/15 11:50:54;;;;;;;8.77;5.73;;;;;;;18.13;31.76;62733.84;5105579;28;20294;-80
2022/03/15 11:53:35;;;;;;;9.00;6.13;;;;;;;18.57;31.74;62782.88;5124113;28;20206;-78
2022/03/15 11:56:23;;;;;;;14.00;6.50;;;;;;;18.25;31.23;62754.53;5123113;28;20202;-79
2022/03/15 11:58:55;;;;;;;12.77;5.63;;;;;;;17.53;30.14;62669.66;5126892;28;20199;-77
2022/03/15 12:01:30;;;;;;;10.23;5.17;;;;;;;17.60;30.40;62677.22;5125578;28;20230;-76
2022/03/15 12:04:04;;;;;;;8.33;5.07;;;;;;;17.92;30.32;62710.66;5118681;28;20206;-78
2022/03/15 12:06:34;;;;;;;9.57;5.20;;;;;;;18.81;29.57;62806.75;5120247;28;20218;-76
2022/03/15 12:09:13;;;;;;;11.07;5.40;;;;;;;18.73;29.91;62808.44;5122165;28;20576;-76
2022/03/15 12:11:48;;;;;;;6.53;4.30;;;;;;;18.65;28.72;62788.94;5121421;28;20256;-78
2022/03/15 12:14:19;;;;;;;11.07;5.57;;;;;;;17.44;29.36;62665.09;5121296;28;20191;-79
2022/03/15 12:16:51;;;;;;;13.67;5.67;;;;;;;17.70;30.11;62688.03;5121573;28;20198;-78
2022/03/15 12:22:09;;;;;;;10.50;5.67;;;;;;;18.63;30.40;62792.47;5118975;28;20206;-79
2022/03/15 12:24:41;;;;;;;14.87;5.03;;;;;;;18.33;30.35;62760.06;5119945;28;20190;-77
2022/03/15 12:27:11;;;;;;;7.13;4.67;;;;;;;18.55;30.21;62783.84;5096608;28;20201;-78
2022/03/15 12:29:39;;;;;;;7.60;4.53;;;;;;;17.93;30.11;62716.91;5113823;28;20209;-80
2022/03/15 12:32:18;;;;;;;10.57;5.20;;;;;;;17.94;29.96;62712.81;5114227;28;20660;-79